首页
METAR-TAF:

METAR-TAF

机场 :

Beaufort, 南卡罗来纳州, 美国

纬度: 32-29-37N, 经度: 080-42-11W, 海拔: 11米

当前天气观测

该预报发布于46分钟前的19:56 UTC
风速6节,风向西
温度 19°C
湿度 68%
气压 1017 hPa
能見度: 16.1公里
阴天层高于10000英尺

METAR: KNBC 201956Z 28006KT 10SM OVC100 19/13 A3004 RMK AO2 SLP173 T01890133

时间: 15:42 (20:42 UTC)

预报

预报有效从20日的 15点(UTC)到 21日的 15点(UTC)
风速6节,风向西
能见度10公里或以上
多云层高于9000英尺
多云层高于25000英尺
成为
从 20日的 16点(UTC)到 20日的 18点(UTC)
风速9节,风向西转西北
能见度10公里或以上
多云层高于25000英尺
成为
从 21日的 02点(UTC)到 21日的 04点(UTC)
风速9节,风向西北
能见度10公里或以上
散云层高于2000英尺
散云层高于12000英尺
从 21日的 1330点(UTC)
风速6节,风向
能见度10公里或以上
少量云层高于1500英尺
少量云层高于15000英尺

TAF: KNBC 2015/2115 28006KT 9999 BKN090 BKN250 QNH3008INS BECMG 2016/2018 30009KT 9999 BKN0100 BKN250 QNH3001INS BECMG 2102/2104 32009KT 9999 SCT020 SCT120 QNH3012INS FM211330 01006KT 9999 FEW015 FEW150 QNH3016INS T20/2019Z T09/2111Z

超过4000个机场的气象观测和天气预报(METAR&TAF报告)。

可查询的气象台以黄色和红色小点在地图上表示。

将鼠标移到小点上方,可查看气象台名称。

然后点击查看天气观测和预报。

如需切换地图:点击带黑十字的绿色按钮放大地图;点击带横线的绿色按钮缩小地图;或者点击绿色箭头查看邻近地区的地图。


METAR-TAF: